Time;durP1;ratioP1;P1;durP2;ratioP2;P2;SDS_P1;SDS_P2;PMS_P1;PMS_P2;Temp;Humidity;BMP_temperature;BMP_pressure;BME280_temperature;BME280_humidity;BME280_pressure;Samples;Min_cycle;Max_cycle;Signal;HPM_P1;HPM_P2
2024/01/19 00:00:57;;;;;;;10.95;8.57;;;2.40;99.90;;;;;;4899932;29;20234;-82
2024/01/19 00:03:27;;;;;;;12.40;7.90;;;2.30;99.90;;;;;;4896013;29;20241;-83
2024/01/19 00:05:56;;;;;;;12.43;8.97;;;2.30;99.90;;;;;;4582661;29;9333711;-77
2024/01/19 00:08:23;;;;;;;11.18;8.85;;;2.30;99.90;;;;;;4907480;29;20470;-78
2024/01/19 00:10:52;;;;;;;12.05;8.27;;;2.30;99.90;;;;;;4905748;29;20229;-82
2024/01/19 00:13:25;;;;;;;10.75;8.57;;;2.30;99.90;;;;;;4908507;29;20510;-82
2024/01/19 00:15:54;;;;;;;8.88;7.90;;;2.30;99.90;;;;;;4900265;29;20580;-82
2024/01/19 00:18:22;;;;;;;14.57;7.72;;;2.30;99.90;;;;;;4897777;29;20230;-77
2024/01/19 00:20:49;;;;;;;14.57;9.15;;;2.30;99.90;;;;;;4898194;29;20236;-82
2024/01/19 00:23:17;;;;;;;10.32;7.07;;;2.30;99.90;;;;;;4889337;29;20253;-82
2024/01/19 00:25:45;;;;;;;13.00;9.02;;;2.30;99.90;;;;;;4899687;29;20581;-82
2024/01/19 00:28:15;;;;;;;8.45;7.65;;;2.40;99.90;;;;;;4929781;29;20229;-81
2024/01/19 00:30:47;;;;;;;11.90;7.68;;;2.40;99.90;;;;;;4937218;29;20228;-81
2024/01/19 00:33:14;;;;;;;10.40;6.85;;;2.50;99.90;;;;;;4936597;29;20591;-82
2024/01/19 00:35:41;;;;;;;9.57;7.80;;;2.50;99.90;;;;;;4936943;29;20229;-77
2024/01/19 00:38:10;;;;;;;10.63;7.13;;;2.50;99.90;;;;;;4922024;29;20236;-82
2024/01/19 00:40:37;;;;;;;9.93;6.70;;;2.50;99.90;;;;;;4913507;29;20234;-81
2024/01/19 00:43:04;;;;;;;10.07;6.57;;;2.50;99.90;;;;;;4899161;29;20257;-82
2024/01/19 00:45:32;;;;;;;8.75;7.38;;;2.50;99.90;;;;;;4897330;29;20325;-82
2024/01/19 00:48:00;;;;;;;8.75;7.85;;;2.50;99.90;;;;;;4898183;29;20684;-77
2024/01/19 00:50:27;;;;;;;7.43;6.03;;;2.50;99.90;;;;;;4897666;29;20238;-77
2024/01/19 00:52:55;;;;;;;12.07;6.50;;;2.50;99.90;;;;;;4898310;29;20266;-77
2024/01/19 00:55:22;;;;;;;11.25;7.63;;;2.50;99.90;;;;;;4898750;29;20254;-78
2024/01/19 00:57:53;;;;;;;15.05;7.80;;;2.50;99.90;;;;;;4897363;29;20230;-77
2024/01/19 01:00:22;;;;;;;8.90;6.88;;;2.50;99.90;;;;;;4898385;29;20320;-77
2024/01/19 01:02:51;;;;;;;10.02;7.57;;;2.50;99.90;;;;;;4897840;29;20697;-77
2024/01/19 01:05:20;;;;;;;10.05;6.95;;;2.50;99.90;;;;;;4898116;29;20238;-77
2024/01/19 01:07:48;;;;;;;9.40;5.78;;;2.40;99.90;;;;;;4899096;29;20685;-77
2024/01/19 01:10:15;;;;;;;9.00;6.72;;;2.40;99.90;;;;;;4898579;29;20317;-81
2024/01/19 01:12:43;;;;;;;10.32;6.70;;;2.40;99.90;;;;;;4888332;29;20242;-81
2024/01/19 01:15:13;;;;;;;10.43;6.95;;;2.40;99.90;;;;;;4898979;29;20235;-82
2024/01/19 01:17:40;;;;;;;8.02;7.22;;;2.50;99.90;;;;;;4898049;29;20974;-81
2024/01/19 01:20:12;;;;;;;9.50;6.50;;;2.40;99.90;;;;;;4898788;29;20725;-77
2024/01/19 01:22:40;;;;;;;12.13;7.70;;;2.40;99.90;;;;;;4897765;29;20238;-77
2024/01/19 01:25:09;;;;;;;11.18;7.88;;;2.40;99.90;;;;;;4890808;29;20237;-81
2024/01/19 01:27:36;;;;;;;8.57;7.13;;;2.40;99.90;;;;;;4898039;29;20260;-77
2024/01/19 01:30:07;;;;;;;9.55;6.75;;;2.40;99.90;;;;;;4895996;29;20680;-77
2024/01/19 01:32:34;;;;;;;8.13;6.80;;;2.40;99.90;;;;;;4897443;29;20237;-81
2024/01/19 01:35:01;;;;;;;7.72;6.65;;;2.30;99.90;;;;;;4898357;29;20229;-83
2024/01/19 01:37:30;;;;;;;12.13;7.28;;;2.20;99.90;;;;;;4898344;29;20313;-76
2024/01/19 01:39:59;;;;;;;9.80;7.75;;;2.30;99.90;;;;;;4897788;29;20226;-82
2024/01/19 01:42:27;;;;;;;8.75;7.35;;;2.20;99.90;;;;;;4898215;29;20238;-77
2024/01/19 01:44:54;;;;;;;10.32;7.13;;;2.20;99.90;;;;;;4897951;29;20656;-81
2024/01/19 01:47:51;;;;;;;10.35;6.85;;;2.30;99.90;;;;;;4898658;29;20226;-76
2024/01/19 01:50:19;;;;;;;10.75;7.18;;;2.30;99.90;;;;;;4880410;29;20230;-83
2024/01/19 01:53:11;;;;;;;12.05;7.32;;;2.40;99.90;;;;;;4896409;29;20230;-83
2024/01/19 01:55:44;;;;;;;11.52;8.75;;;2.40;99.90;;;;;;4879215;29;20237;-77
2024/01/19 01:58:36;;;;;;;8.63;7.40;;;2.40;99.90;;;;;;4899375;29;20281;-78
2024/01/19 02:01:09;;;;;;;12.60;7.93;;;2.40;99.90;;;;;;4902056;29;20606;-81
2024/01/19 02:03:41;;;;;;;9.00;7.30;;;2.40;99.90;;;;;;4899163;29;20229;-81
2024/01/19 02:06:14;;;;;;;8.85;6.60;;;2.40;99.90;;;;;;4890487;29;20238;-82
2024/01/19 02:08:50;;;;;;;10.43;7.53;;;2.40;99.90;;;;;;4879074;29;20257;-76
2024/01/19 02:11:19;;;;;;;8.85;7.88;;;2.40;99.90;;;;;;4897893;29;20261;-81
2024/01/19 02:13:46;;;;;;;10.30;7.90;;;2.40;99.90;;;;;;4901453;29;20244;-82
2024/01/19 02:16:14;;;;;;;9.00;7.35;;;2.40;99.90;;;;;;4901053;29;20321;-77
2024/01/19 02:18:43;;;;;;;8.60;7.10;;;2.40;99.90;;;;;;4898857;29;20229;-77
2024/01/19 02:21:11;;;;;;;9.27;8.13;;;2.50;99.90;;;;;;4901784;29;20245;-77
2024/01/19 02:23:46;;;;;;;9.43;7.47;;;2.40;99.90;;;;;;4891592;29;20229;-82
2024/01/19 02:26:15;;;;;;;8.80;7.72;;;2.40;99.90;;;;;;4901761;29;20232;-77
2024/01/19 02:28:42;;;;;;;12.35;7.72;;;2.40;99.90;;;;;;4901783;29;20564;-82
2024/01/19 02:31:09;;;;;;;11.15;7.45;;;2.40;99.90;;;;;;4902265;29;20677;-81
2024/01/19 02:33:36;;;;;;;9.60;7.60;;;2.40;99.90;;;;;;4900891;29;20760;-82
2024/01/19 02:36:03;;;;;;;7.70;6.90;;;2.40;99.90;;;;;;4901456;29;20230;-82
2024/01/19 02:38:30;;;;;;;9.20;7.72;;;2.40;99.90;;;;;;4901561;29;20234;-77
2024/01/19 02:41:00;;;;;;;10.23;7.28;;;2.40;99.90;;;;;;4899700;29;20226;-77
2024/01/19 02:43:28;;;;;;;9.05;7.68;;;2.40;99.90;;;;;;4901578;29;20230;-77
2024/01/19 02:45:55;;;;;;;9.75;7.28;;;2.40;99.90;;;;;;4900988;29;20233;-77
2024/01/19 02:48:22;;;;;;;9.80;8.00;;;2.40;99.90;;;;;;4901272;29;20672;-78
2024/01/19 02:50:49;;;;;;;10.80;7.07;;;2.40;99.90;;;;;;4900882;29;20226;-78
2024/01/19 02:53:17;;;;;;;8.60;7.75;;;2.40;99.90;;;;;;4901292;29;20309;-82
2024/01/19 02:55:46;;;;;;;11.80;7.28;;;2.40;99.90;;;;;;4899872;29;20561;-77
2024/01/19 02:58:13;;;;;;;10.52;7.82;;;2.40;99.90;;;;;;4900677;29;20230;-78
2024/01/19 03:00:42;;;;;;;9.27;7.10;;;2.40;99.90;;;;;;4900192;29;20250;-78
2024/01/19 03:03:09;;;;;;;12.65;9.48;;;2.40;99.90;;;;;;4901946;29;20230;-82
2024/01/19 03:05:36;;;;;;;7.68;6.97;;;2.40;99.90;;;;;;4899932;29;20245;-82
2024/01/19 03:08:03;;;;;;;10.00;6.82;;;2.40;99.90;;;;;;4897675;29;20291;-82
2024/01/19 03:10:30;;;;;;;8.15;7.35;;;2.40;99.90;;;;;;4900990;29;20582;-78
2024/01/19 03:12:57;;;;;;;11.65;7.97;;;2.40;99.90;;;;;;4900331;29;20264;-78
2024/01/19 03:15:24;;;;;;;10.68;7.43;;;2.40;99.90;;;;;;4900769;29;20226;-77
2024/01/19 03:17:52;;;;;;;10.30;7.25;;;2.40;99.90;;;;;;4900386;29;20290;-82
2024/01/19 03:20:20;;;;;;;12.30;6.85;;;2.40;99.90;;;;;;4900882;29;20483;-82
2024/01/19 03:22:47;;;;;;;8.93;6.10;;;2.40;99.90;;;;;;4900953;29;20269;-81
2024/01/19 03:25:14;;;;;;;6.03;5.43;;;2.40;99.90;;;;;;4900273;29;20225;-77
2024/01/19 03:27:42;;;;;;;10.05;6.30;;;2.40;99.90;;;;;;4900001;29;20229;-78
2024/01/19 03:30:10;;;;;;;10.80;6.03;;;2.40;99.90;;;;;;4899981;29;20226;-82
2024/01/19 03:32:37;;;;;;;6.72;4.68;;;2.40;99.90;;;;;;4900139;29;20230;-77
2024/01/19 03:35:17;;;;;;;7.90;6.20;;;2.40;99.90;;;;;;4899995;29;20229;-82
2024/01/19 03:37:44;;;;;;;13.00;6.28;;;2.40;99.90;;;;;;4900334;29;20594;-78
2024/01/19 03:40:12;;;;;;;8.15;5.07;;;2.40;99.90;;;;;;4899673;29;20277;-82
2024/01/19 03:42:39;;;;;;;6.80;4.90;;;2.40;99.90;;;;;;4900352;29;20237;-82
2024/01/19 03:45:07;;;;;;;12.77;5.80;;;2.40;99.90;;;;;;4899705;29;20240;-77
2024/01/19 03:47:34;;;;;;;9.80;5.20;;;2.40;99.90;;;;;;4899199;29;20222;-78
2024/01/19 03:50:05;;;;;;;7.80;5.22;;;2.40;99.90;;;;;;4899468;29;20249;-78
2024/01/19 03:52:34;;;;;;;9.82;5.68;;;2.30;99.90;;;;;;4900590;29;20230;-82
2024/01/19 03:55:01;;;;;;;8.75;5.47;;;2.40;99.90;;;;;;4899986;29;20245;-82
2024/01/19 03:57:28;;;;;;;13.07;5.88;;;2.30;99.90;;;;;;4899592;29;20285;-77
2024/01/19 03:59:56;;;;;;;10.52;5.40;;;2.30;99.90;;;;;;4899695;29;20230;-77
2024/01/19 04:02:23;;;;;;;5.57;4.93;;;2.30;99.90;;;;;;4900192;29;20234;-82
2024/01/19 04:04:50;;;;;;;8.98;5.28;;;2.40;99.90;;;;;;4898956;29;20237;-79
2024/01/19 04:07:17;;;;;;;7.97;4.80;;;2.30;99.90;;;;;;4900068;29;20244;-77
2024/01/19 04:09:46;;;;;;;8.15;5.72;;;2.30;99.90;;;;;;4899977;29;20226;-77
2024/01/19 04:12:19;;;;;;;6.82;5.95;;;2.30;99.90;;;;;;4900058;29;20226;-81
2024/01/19 04:14:48;;;;;;;6.32;5.00;;;2.40;99.90;;;;;;4900292;29;20634;-81
2024/01/19 04:17:15;;;;;;;5.90;5.30;;;2.40;99.90;;;;;;4899415;29;20236;-81
2024/01/19 04:19:42;;;;;;;5.65;4.38;;;2.40;99.90;;;;;;4899038;29;20226;-81
2024/01/19 04:22:09;;;;;;;8.00;5.03;;;2.40;99.90;;;;;;4899627;29;20245;-81
2024/01/19 04:24:40;;;;;;;7.78;5.88;;;2.50;99.90;;;;;;4899675;29;20226;-81
2024/01/19 04:27:08;;;;;;;5.75;5.03;;;2.50;99.90;;;;;;4899488;29;20230;-81
2024/01/19 04:29:35;;;;;;;5.43;4.75;;;2.40;99.90;;;;;;4899990;29;20561;-82
2024/01/19 04:32:02;;;;;;;7.95;4.97;;;2.50;99.90;;;;;;4898690;29;20230;-77
2024/01/19 04:34:29;;;;;;;6.95;5.00;;;2.50;99.90;;;;;;4899304;29;20229;-77
2024/01/19 04:36:56;;;;;;;7.38;5.65;;;2.40;99.90;;;;;;4898511;29;20237;-77
2024/01/19 04:39:24;;;;;;;7.05;4.88;;;2.50;99.90;;;;;;4899155;29;20257;-77
2024/01/19 04:41:51;;;;;;;8.98;5.88;;;2.50;99.90;;;;;;4899324;29;20230;-81
2024/01/19 04:44:20;;;;;;;5.28;4.78;;;2.50;99.90;;;;;;4899615;29;20222;-78
2024/01/19 04:46:47;;;;;;;6.25;4.45;;;2.50;99.90;;;;;;4899219;29;20580;-78
2024/01/19 04:49:14;;;;;;;9.13;5.47;;;2.50;99.90;;;;;;4899085;29;22437;-81
2024/01/19 04:51:41;;;;;;;7.18;6.15;;;2.50;99.90;;;;;;4889918;29;20320;-82
2024/01/19 04:54:08;;;;;;;7.22;4.50;;;2.50;99.90;;;;;;4899004;29;20230;-81
2024/01/19 04:56:35;;;;;;;7.70;4.85;;;2.50;99.90;;;;;;4899128;29;20226;-77
2024/01/19 04:59:02;;;;;;;5.75;4.47;;;2.50;99.90;;;;;;4898569;29;20234;-78
2024/01/19 05:01:30;;;;;;;5.85;4.20;;;2.50;99.90;;;;;;4898966;29;20317;-77
2024/01/19 05:03:57;;;;;;;5.15;3.83;;;2.50;99.90;;;;;;4898235;29;20264;-78
2024/01/19 05:06:25;;;;;;;5.07;4.57;;;2.50;99.90;;;;;;4899128;29;20234;-81
2024/01/19 05:08:59;;;;;;;4.47;4.07;;;2.60;99.90;;;;;;4899036;29;20320;-82
2024/01/19 05:11:32;;;;;;;6.43;4.38;;;2.60;99.90;;;;;;4898724;29;20229;-82
2024/01/19 05:13:59;;;;;;;4.55;3.95;;;2.60;99.90;;;;;;4899495;29;20246;-83
2024/01/19 05:16:26;;;;;;;5.13;4.18;;;2.70;99.90;;;;;;4898690;29;20234;-82
2024/01/19 05:18:54;;;;;;;6.05;3.95;;;2.60;99.90;;;;;;4899298;29;20230;-82
2024/01/19 05:21:22;;;;;;;7.47;3.95;;;2.60;99.90;;;;;;4888869;29;20238;-82
2024/01/19 05:23:49;;;;;;;7.03;4.15;;;2.60;99.90;;;;;;4898751;29;20240;-82
2024/01/19 05:26:15;;;;;;;4.20;3.40;;;2.70;99.90;;;;;;4898398;29;20250;-81
2024/01/19 05:28:43;;;;;;;6.25;4.68;;;2.70;99.90;;;;;;4898829;29;20270;-81
2024/01/19 05:31:10;;;;;;;4.22;3.47;;;2.70;99.90;;;;;;4897541;29;20249;-77
2024/01/19 05:33:37;;;;;;;3.55;3.25;;;2.70;99.90;;;;;;4898445;29;20226;-77
2024/01/19 05:36:08;;;;;;;6.10;3.10;;;2.70;99.90;;;;;;4898359;29;20230;-76
2024/01/19 05:38:35;;;;;;;4.15;3.17;;;2.80;99.90;;;;;;4897820;29;20230;-77
2024/01/19 05:41:02;;;;;;;4.22;2.95;;;2.80;99.90;;;;;;4898405;29;20569;-77
2024/01/19 05:43:29;;;;;;;5.13;3.55;;;2.80;99.90;;;;;;4897614;29;20696;-77
2024/01/19 05:45:56;;;;;;;9.73;4.05;;;2.80;99.90;;;;;;4898418;29;20316;-77
2024/01/19 05:48:26;;;;;;;5.15;3.30;;;2.80;99.90;;;;;;4897753;29;20225;-81
2024/01/19 05:50:53;;;;;;;3.65;3.13;;;2.80;99.90;;;;;;4898486;29;20230;-81
2024/01/19 05:53:21;;;;;;;7.18;4.00;;;2.80;99.90;;;;;;4898058;29;20241;-82
2024/01/19 05:55:48;;;;;;;4.90;2.85;;;2.80;99.90;;;;;;4898762;29;20234;-82
2024/01/19 05:58:15;;;;;;;3.90;3.25;;;2.80;99.90;;;;;;4897930;29;20241;-77
2024/01/19 06:00:42;;;;;;;3.40;2.95;;;2.80;99.90;;;;;;4898421;29;20556;-81
2024/01/19 06:03:10;;;;;;;5.68;3.45;;;2.80;99.90;;;;;;4898119;29;20258;-77
2024/01/19 06:05:37;;;;;;;4.53;4.18;;;2.80;99.90;;;;;;4897381;29;20233;-77
2024/01/19 06:08:04;;;;;;;3.60;2.85;;;2.80;99.90;;;;;;4897270;29;20548;-77
2024/01/19 06:10:33;;;;;;;5.93;5.13;;;2.80;99.90;;;;;;4887365;29;20226;-77
2024/01/19 06:13:00;;;;;;;7.18;5.97;;;2.90;99.90;;;;;;4897463;29;20553;-82
2024/01/19 06:15:27;;;;;;;8.05;4.60;;;2.90;99.90;;;;;;4897573;29;20257;-81
2024/01/19 06:17:54;;;;;;;4.10;3.28;;;2.90;99.90;;;;;;4898935;29;20229;-82
2024/01/19 06:20:21;;;;;;;8.88;4.13;;;2.90;99.90;;;;;;4898481;29;20226;-77
2024/01/19 06:22:48;;;;;;;4.50;3.00;;;2.90;99.90;;;;;;4897665;29;20286;-77
2024/01/19 06:25:15;;;;;;;4.30;3.90;;;2.90;99.90;;;;;;4898006;29;20249;-77
2024/01/19 06:27:44;;;;;;;4.20;3.10;;;2.90;99.90;;;;;;4897418;29;20230;-77
2024/01/19 06:30:13;;;;;;;6.78;3.17;;;2.90;99.90;;;;;;4897631;29;20233;-77
2024/01/19 06:32:40;;;;;;;9.13;3.45;;;2.90;99.90;;;;;;4897188;29;20238;-82
2024/01/19 06:35:08;;;;;;;13.00;3.55;;;2.90;99.90;;;;;;4897262;29;20226;-82
2024/01/19 06:37:38;;;;;;;4.93;3.10;;;2.90;99.90;;;;;;4897758;29;20636;-81
2024/01/19 06:40:07;;;;;;;7.88;3.60;;;2.90;99.90;;;;;;4897694;29;20237;-78
2024/01/19 06:42:41;;;;;;;4.13;3.33;;;2.90;99.90;;;;;;4897656;29;20689;-77
2024/01/19 06:45:10;;;;;;;6.32;3.45;;;2.80;99.90;;;;;;4901128;29;20689;-77
2024/01/19 06:47:37;;;;;;;2.92;2.50;;;2.90;99.90;;;;;;4901128;29;20301;-77
2024/01/19 06:50:05;;;;;;;4.25;2.85;;;2.80;99.90;;;;;;4901220;29;20230;-77
2024/01/19 06:52:32;;;;;;;8.65;5.20;;;2.80;99.90;;;;;;4900685;29;20253;-78
2024/01/19 06:55:02;;;;;;;8.88;5.05;;;2.80;99.90;;;;;;4900941;29;20246;-82
2024/01/19 06:57:29;;;;;;;10.02;5.60;;;2.80;99.90;;;;;;4900217;29;20333;-81
2024/01/19 06:59:56;;;;;;;11.07;6.35;;;2.80;99.90;;;;;;4902046;29;20230;-82
2024/01/19 07:02:25;;;;;;;10.15;5.78;;;2.90;99.90;;;;;;4901202;29;20234;-82
2024/01/19 07:04:52;;;;;;;5.95;4.15;;;2.90;99.90;;;;;;4902840;29;20238;-83
2024/01/19 07:07:19;;;;;;;4.20;3.78;;;2.90;99.90;;;;;;4902003;29;20627;-83
2024/01/19 07:09:49;;;;;;;4.95;3.53;;;2.90;99.90;;;;;;4900973;29;20234;-82
2024/01/19 07:12:19;;;;;;;6.43;4.13;;;2.90;99.90;;;;;;4901078;29;20238;-81
2024/01/19 07:14:49;;;;;;;3.80;3.50;;;2.90;99.90;;;;;;4900921;29;20230;-81
2024/01/19 07:17:16;;;;;;;8.00;3.30;;;2.90;99.90;;;;;;4901509;29;20761;-82
2024/01/19 07:19:44;;;;;;;5.07;3.45;;;3.00;99.90;;;;;;4900537;29;20573;-81
2024/01/19 07:22:12;;;;;;;4.38;3.97;;;3.00;99.90;;;;;;4900420;29;20229;-82
2024/01/19 07:24:39;;;;;;;5.53;4.13;;;3.00;99.90;;;;;;4900333;29;20245;-81
2024/01/19 07:27:06;;;;;;;7.85;4.07;;;3.00;99.90;;;;;;4888622;29;20247;-78
2024/01/19 07:29:33;;;;;;;11.27;4.25;;;3.10;99.90;;;;;;4900606;29;20736;-78
2024/01/19 07:32:01;;;;;;;6.38;3.53;;;3.10;99.90;;;;;;4900718;29;20243;-78
2024/01/19 07:34:28;;;;;;;4.53;3.30;;;3.10;99.90;;;;;;4900195;29;20234;-82
2024/01/19 07:36:56;;;;;;;7.10;3.75;;;3.10;99.90;;;;;;4901047;29;20238;-82
2024/01/19 07:39:26;;;;;;;6.90;4.68;;;3.10;99.90;;;;;;4900033;29;20237;-82
2024/01/19 07:41:53;;;;;;;4.40;3.72;;;3.20;99.90;;;;;;4890145;29;20697;-82
2024/01/19 07:44:21;;;;;;;4.13;3.80;;;3.20;99.90;;;;;;4900066;29;20309;-82
2024/01/19 07:46:48;;;;;;;6.80;4.43;;;3.20;99.90;;;;;;4900820;29;20234;-82
2024/01/19 07:49:20;;;;;;;6.40;4.28;;;3.20;99.90;;;;;;4900836;29;20226;-82
2024/01/19 07:51:47;;;;;;;7.93;4.65;;;3.20;99.90;;;;;;4900226;29;20240;-82
2024/01/19 07:54:17;;;;;;;4.45;3.80;;;3.20;99.90;;;;;;4899782;29;20258;-82
2024/01/19 07:56:44;;;;;;;4.78;3.95;;;3.20;99.90;;;;;;4900244;29;20548;-82
2024/01/19 07:59:11;;;;;;;6.13;4.13;;;3.20;99.90;;;;;;4900287;29;20226;-82
2024/01/19 08:01:39;;;;;;;5.50;3.80;;;3.20;99.90;;;;;;4899802;29;20229;-83
2024/01/19 08:04:06;;;;;;;9.05;5.65;;;3.20;99.90;;;;;;4900508;29;20234;-83
2024/01/19 08:06:34;;;;;;;5.28;4.75;;;3.30;99.90;;;;;;4899856;29;20253;-82
2024/01/19 08:09:01;;;;;;;5.20;3.88;;;3.20;99.90;;;;;;4904126;29;20202;-83
2024/01/19 08:11:29;;;;;;;6.63;4.65;;;3.30;99.90;;;;;;4899899;29;20226;-82
2024/01/19 08:13:56;;;;;;;6.95;4.32;;;3.20;99.90;;;;;;4900307;29;20321;-82
2024/01/19 08:16:23;;;;;;;5.63;4.68;;;3.30;99.90;;;;;;4900357;29;20660;-82
2024/01/19 08:18:50;;;;;;;6.38;4.68;;;3.30;99.90;;;;;;4900409;29;20234;-82
2024/01/19 08:21:17;;;;;;;6.05;4.65;;;3.30;99.90;;;;;;4900329;29;20230;-82
2024/01/19 08:23:44;;;;;;;7.32;4.65;;;3.30;99.90;;;;;;4900295;29;20234;-82
2024/01/19 08:26:11;;;;;;;8.00;4.78;;;3.30;99.90;;;;;;4900205;29;20240;-82
2024/01/19 08:28:39;;;;;;;7.35;4.78;;;3.30;99.90;;;;;;4900497;29;20256;-78
2024/01/19 08:31:12;;;;;;;9.50;4.53;;;3.30;99.90;;;;;;4899921;29;20233;-82
2024/01/19 08:33:39;;;;;;;5.85;4.95;;;3.30;99.90;;;;;;4900922;29;20230;-82
2024/01/19 08:36:06;;;;;;;6.10;4.75;;;3.30;99.90;;;;;;4900697;29;20237;-78
2024/01/19 08:38:33;;;;;;;7.85;4.60;;;3.30;99.90;;;;;;4899508;29;20292;-78
2024/01/19 08:41:01;;;;;;;7.18;5.85;;;3.30;99.90;;;;;;4900456;29;20237;-78
2024/01/19 08:43:28;;;;;;;5.95;5.13;;;3.30;99.90;;;;;;4899767;29;20234;-78
2024/01/19 08:45:56;;;;;;;6.60;5.00;;;3.30;99.90;;;;;;4900966;29;20245;-78
2024/01/19 08:48:24;;;;;;;9.32;4.63;;;3.30;99.90;;;;;;4901838;29;20380;-78
2024/01/19 08:50:51;;;;;;;10.45;4.50;;;3.40;99.90;;;;;;4903258;29;20233;-78
2024/01/19 08:53:18;;;;;;;5.68;5.15;;;3.40;99.90;;;;;;4903545;29;20238;-78
2024/01/19 08:55:45;;;;;;;7.25;4.60;;;3.40;99.90;;;;;;4907457;29;20226;-78
2024/01/19 08:58:14;;;;;;;6.68;5.03;;;3.40;99.90;;;;;;4910311;29;20248;-79
2024/01/19 09:00:41;;;;;;;7.95;6.38;;;3.40;99.90;;;;;;4908318;29;20234;-83
2024/01/19 09:03:10;;;;;;;9.23;5.80;;;3.40;99.90;;;;;;4911522;29;20294;-82
2024/01/19 09:05:38;;;;;;;7.28;5.05;;;3.50;99.90;;;;;;4913146;29;20234;-82
2024/01/19 09:08:05;;;;;;;8.73;5.40;;;3.50;99.90;;;;;;4907249;29;20562;-82
2024/01/19 09:10:33;;;;;;;8.32;6.30;;;3.50;99.90;;;;;;4906145;29;20248;-83
2024/01/19 09:13:00;;;;;;;8.85;5.70;;;3.40;99.90;;;;;;4905919;29;20234;-82
2024/01/19 09:15:27;;;;;;;7.10;4.50;;;3.40;99.90;;;;;;4906164;29;20293;-82
2024/01/19 09:17:55;;;;;;;7.35;5.63;;;3.50;99.90;;;;;;4906832;29;20609;-82
2024/01/19 09:20:24;;;;;;;7.85;6.72;;;3.50;99.90;;;;;;4903923;29;20244;-82
2024/01/19 09:22:51;;;;;;;7.47;5.82;;;3.50;99.90;;;;;;4902394;29;20241;-82
2024/01/19 09:25:18;;;;;;;5.57;5.07;;;3.50;99.90;;;;;;4902519;29;20238;-82
2024/01/19 09:27:45;;;;;;;6.72;6.13;;;3.50;99.90;;;;;;4903389;29;20230;-83
2024/01/19 09:30:12;;;;;;;12.77;8.95;;;3.60;99.90;;;;;;4904443;29;20230;-82
2024/01/19 09:32:40;;;;;;;11.07;8.23;;;3.60;99.90;;;;;;4903336;29;20239;-82
2024/01/19 09:35:08;;;;;;;8.82;7.00;;;3.60;99.90;;;;;;4900159;29;20253;-82
2024/01/19 09:37:37;;;;;;;10.52;7.07;;;3.60;99.90;;;;;;4899513;29;20676;-82
2024/01/19 09:40:04;;;;;;;8.52;5.97;;;3.60;99.90;;;;;;4899456;29;20253;-83
2024/01/19 09:42:34;;;;;;;10.00;6.50;;;3.60;99.90;;;;;;4898872;29;20238;-82
2024/01/19 09:45:04;;;;;;;10.50;7.50;;;3.70;99.90;;;;;;4899647;29;20234;-83
2024/01/19 09:47:42;;;;;;;10.88;6.03;;;3.70;99.90;;;;;;4898510;29;20226;-82
2024/01/19 09:50:12;;;;;;;9.23;6.78;;;3.70;99.90;;;;;;4899577;29;20245;-82
2024/01/19 09:53:07;;;;;;;8.35;6.07;;;3.70;99.90;;;;;;4898754;29;20230;-82
2024/01/19 09:55:34;;;;;;;8.38;6.65;;;3.60;99.90;;;;;;4898571;29;20568;-83
2024/01/19 09:58:01;;;;;;;8.77;5.80;;;3.60;99.90;;;;;;4899792;29;20230;-83
2024/01/19 10:00:28;;;;;;;6.20;5.32;;;3.70;99.90;;;;;;4898946;29;20685;-83
2024/01/19 10:02:56;;;;;;;7.75;5.70;;;3.70;99.90;;;;;;4899391;29;20230;-83
2024/01/19 10:05:23;;;;;;;11.32;6.80;;;3.70;99.90;;;;;;4898611;29;20681;-82
2024/01/19 10:07:55;;;;;;;10.40;7.20;;;3.80;99.90;;;;;;4899448;29;20233;-83
2024/01/19 10:10:22;;;;;;;11.02;7.63;;;3.80;99.90;;;;;;4898725;29;20226;-82
2024/01/19 10:12:52;;;;;;;8.65;6.13;;;3.80;99.90;;;;;;4898739;29;20253;-82
2024/01/19 10:15:19;;;;;;;10.30;7.32;;;3.90;99.90;;;;;;4898312;29;20566;-81
2024/01/19 10:17:47;;;;;;;8.60;6.35;;;3.90;99.90;;;;;;4899625;29;20309;-81
2024/01/19 10:20:16;;;;;;;9.13;6.70;;;3.90;99.90;;;;;;4903034;29;20253;-82
2024/01/19 10:22:44;;;;;;;10.90;6.93;;;3.90;99.90;;;;;;4902271;29;20613;-78
2024/01/19 10:25:14;;;;;;;12.63;7.18;;;4.00;99.90;;;;;;4902787;29;20788;-78
2024/01/19 10:27:46;;;;;;;8.98;6.72;;;3.90;99.90;;;;;;4901874;29;20230;-78
2024/01/19 10:30:16;;;;;;;9.63;6.75;;;4.00;99.90;;;;;;4901943;29;20237;-78
2024/01/19 10:32:46;;;;;;;10.60;6.45;;;4.00;99.90;;;;;;4901812;29;20253;-77
2024/01/19 10:35:15;;;;;;;8.05;6.70;;;4.10;99.90;;;;;;4902099;29;20285;-78
2024/01/19 10:37:43;;;;;;;6.97;6.05;;;4.10;99.90;;;;;;4901091;29;20226;-77
2024/01/19 10:40:22;;;;;;;9.77;6.95;;;4.10;99.90;;;;;;4901779;29;20260;-78
2024/01/19 10:42:56;;;;;;;12.45;7.55;;;4.10;99.90;;;;;;4900972;29;20230;-77
2024/01/19 10:45:35;;;;;;;13.50;9.55;;;4.20;99.90;;;;;;4901571;29;20237;-77
2024/01/19 10:48:04;;;;;;;14.23;9.05;;;4.20;99.90;;;;;;4902234;29;20301;-78
2024/01/19 10:50:32;;;;;;;12.70;6.90;;;4.30;99.90;;;;;;4901521;29;20318;-83
2024/01/19 10:53:02;;;;;;;10.15;6.70;;;4.30;99.90;;;;;;4902121;29;20226;-82
2024/01/19 10:55:32;;;;;;;9.68;7.35;;;4.40;99.90;;;;;;4901473;29;20262;-78
2024/01/19 10:58:13;;;;;;;11.05;7.65;;;4.40;99.90;;;;;;4901521;29;20226;-78
2024/01/19 11:00:43;;;;;;;7.65;6.32;;;4.50;99.90;;;;;;4900974;29;20238;-77
2024/01/19 11:03:11;;;;;;;9.75;6.80;;;4.50;99.90;;;;;;4901991;29;20574;-77
2024/01/19 11:05:38;;;;;;;10.82;6.22;;;4.60;99.90;;;;;;4900599;29;20237;-81
2024/01/19 11:08:05;;;;;;;8.80;5.95;;;4.50;99.90;;;;;;4901122;29;20234;-82
2024/01/19 11:10:34;;;;;;;10.35;7.15;;;4.50;99.90;;;;;;4900821;29;20234;-81
2024/01/19 11:13:02;;;;;;;9.43;6.60;;;4.50;99.90;;;;;;4889566;29;20290;-82
2024/01/19 11:15:35;;;;;;;10.30;6.28;;;4.60;99.90;;;;;;4901125;29;20241;-81
2024/01/19 11:18:04;;;;;;;8.73;6.15;;;4.60;99.90;;;;;;4900087;29;20226;-81
2024/01/19 11:20:32;;;;;;;6.97;6.07;;;4.60;99.90;;;;;;4901275;29;20226;-81
2024/01/19 11:22:59;;;;;;;6.47;4.90;;;4.70;99.90;;;;;;4900732;29;20696;-83
2024/01/19 11:25:41;;;;;;;8.18;6.38;;;4.70;99.90;;;;;;4901560;29;20248;-83
2024/01/19 11:28:16;;;;;;;9.23;7.13;;;4.70;99.90;;;;;;4900813;29;20312;-83
2024/01/19 11:31:02;;;;;;;8.73;6.50;;;4.70;99.90;;;;;;4898371;29;20230;-82
2024/01/19 11:33:31;;;;;;;6.80;6.18;;;4.70;99.90;;;;;;4900454;29;20230;-82
2024/01/19 11:35:58;;;;;;;12.07;6.63;;;4.70;99.90;;;;;;4901055;29;20237;-78
2024/01/19 11:38:45;;;;;;;7.28;5.80;;;4.70;99.90;;;;;;4900479;29;20233;-77
2024/01/19 11:41:46;;;;;;;8.48;6.50;;;4.70;99.90;;;;;;4900167;29;20290;-76
2024/01/19 11:44:44;;;;;;;8.43;5.85;;;4.70;99.90;;;;;;4899973;29;20226;-77
2024/01/19 11:47:40;;;;;;;7.50;5.00;;;4.70;99.90;;;;;;4900698;29;20234;-77
2024/01/19 11:50:09;;;;;;;8.38;5.22;;;4.80;99.90;;;;;;4900610;29;20234;-80
2024/01/19 11:52:41;;;;;;;10.60;5.70;;;4.80;99.90;;;;;;4900340;29;20318;-81
2024/01/19 11:55:40;;;;;;;11.50;5.60;;;4.80;99.90;;;;;;4900514;29;20230;-81
2024/01/19 11:58:27;;;;;;;6.03;4.60;;;4.80;99.90;;;;;;4901121;29;20230;-81
2024/01/19 12:00:55;;;;;;;7.45;4.35;;;4.70;99.90;;;;;;4900422;29;20285;-77
2024/01/19 12:03:23;;;;;;;10.77;5.07;;;4.70;99.90;;;;;;4900518;29;20233;-77
2024/01/19 12:05:51;;;;;;;7.22;4.13;;;4.80;99.90;;;;;;4898872;29;20705;-77
2024/01/19 12:08:20;;;;;;;7.78;4.40;;;4.80;99.90;;;;;;4899932;29;20241;-77
2024/01/19 12:11:05;;;;;;;6.30;4.40;;;4.90;99.90;;;;;;4899619;29;20230;-78
2024/01/19 12:13:35;;;;;;;13.38;5.20;;;4.90;99.90;;;;;;4899605;29;20233;-78
2024/01/19 12:16:04;;;;;;;8.05;6.95;;;5.00;99.90;;;;;;4918648;29;20236;-78
2024/01/19 12:18:32;;;;;;;11.55;8.75;;;5.00;99.90;;;;;;4918688;29;20234;-78
2024/01/19 12:21:00;;;;;;;11.65;8.15;;;5.10;99.90;;;;;;4919351;29;20293;-77
2024/01/19 12:23:28;;;;;;;6.65;5.00;;;5.10;99.90;;;;;;4918964;29;20233;-77
2024/01/19 12:26:03;;;;;;;7.43;4.97;;;5.00;99.90;;;;;;4915944;29;20552;-78
2024/01/19 12:28:33;;;;;;;9.45;5.82;;;5.00;99.90;;;;;;4918994;29;20221;-82
2024/01/19 12:31:02;;;;;;;9.95;5.05;;;5.00;99.90;;;;;;4917352;29;20316;-82
2024/01/19 12:33:29;;;;;;;5.40;4.50;;;5.00;99.90;;;;;;4918628;29;20611;-82
2024/01/19 12:36:11;;;;;;;7.13;4.63;;;5.10;99.90;;;;;;4901199;29;20268;-81
2024/01/19 12:38:40;;;;;;;5.70;5.07;;;5.10;99.90;;;;;;4899245;29;20285;-78
2024/01/19 12:41:09;;;;;;;7.43;5.00;;;5.00;99.90;;;;;;4903087;29;20229;-78
2024/01/19 12:43:36;;;;;;;9.50;4.32;;;5.10;99.90;;;;;;4917904;29;20234;-78
2024/01/19 12:46:07;;;;;;;4.93;4.43;;;5.10;99.90;;;;;;4910704;29;20305;-78
2024/01/19 12:48:34;;;;;;;7.35;5.75;;;5.10;99.90;;;;;;4909980;29;20230;-83
2024/01/19 12:51:04;;;;;;;10.80;5.97;;;5.10;99.90;;;;;;4916613;29;20667;-82
2024/01/19 12:53:32;;;;;;;6.95;5.05;;;5.10;99.90;;;;;;4911481;29;20226;-82
2024/01/19 12:56:01;;;;;;;8.77;5.40;;;5.10;99.90;;;;;;4898844;29;20241;-82
2024/01/19 12:58:30;;;;;;;6.18;5.53;;;5.20;99.90;;;;;;4900525;29;20237;-82
2024/01/19 13:01:08;;;;;;;7.25;5.93;;;5.10;99.90;;;;;;4914646;29;20229;-82
2024/01/19 13:03:35;;;;;;;8.68;5.05;;;5.20;99.90;;;;;;4918157;29;20244;-82
2024/01/19 13:06:05;;;;;;;5.13;4.63;;;5.20;99.90;;;;;;4901520;29;20230;-81